sensor_id;sensor_type;location;lat;lon;timestamp;P1;durP1;ratioP1;P2;durP2;ratioP2
38591;SDS011;24356;48.460;11.450;2022-07-23T00:00:51;16.50;;;9.63;;
38591;SDS011;24356;48.460;11.450;2022-07-23T00:03:17;10.15;;;8.32;;
38591;SDS011;24356;48.460;11.450;2022-07-23T00:05:43;12.25;;;8.25;;
38591;SDS011;24356;48.460;11.450;2022-07-23T00:08:08;14.07;;;9.00;;
38591;SDS011;24356;48.460;11.450;2022-07-23T00:10:34;12.45;;;8.93;;
38591;SDS011;24356;48.460;11.450;2022-07-23T00:13:00;11.00;;;7.82;;
38591;SDS011;24356;48.460;11.450;2022-07-23T00:15:26;10.30;;;8.60;;
38591;SDS011;24356;48.460;11.450;2022-07-23T00:17:54;12.43;;;8.57;;
38591;SDS011;24356;48.460;11.450;2022-07-23T00:20:19;10.68;;;8.75;;
38591;SDS011;24356;48.460;11.450;2022-07-23T00:22:49;11.70;;;8.55;;
38591;SDS011;24356;48.460;11.450;2022-07-23T00:25:15;12.27;;;8.80;;
38591;SDS011;24356;48.460;11.450;2022-07-23T00:27:41;13.35;;;8.95;;
38591;SDS011;24356;48.460;11.450;2022-07-23T00:30:08;10.23;;;8.45;;
38591;SDS011;24356;48.460;11.450;2022-07-23T00:32:47;13.27;;;8.45;;
38591;SDS011;24356;48.460;11.450;2022-07-23T00:35:14;11.55;;;8.10;;
38591;SDS011;24356;48.460;11.450;2022-07-23T00:37:41;10.38;;;8.63;;
38591;SDS011;24356;48.460;11.450;2022-07-23T00:40:07;14.63;;;9.02;;
38591;SDS011;24356;48.460;11.450;2022-07-23T00:42:34;10.02;;;8.35;;
38591;SDS011;24356;48.460;11.450;2022-07-23T00:44:59;12.43;;;8.90;;
38591;SDS011;24356;48.460;11.450;2022-07-23T00:47:25;12.88;;;8.88;;
38591;SDS011;24356;48.460;11.450;2022-07-23T00:49:51;15.90;;;9.02;;
38591;SDS011;24356;48.460;11.450;2022-07-23T00:52:16;13.02;;;8.73;;
38591;SDS011;24356;48.460;11.450;2022-07-23T00:54:42;12.77;;;8.75;;
38591;SDS011;24356;48.460;11.450;2022-07-23T00:57:08;12.40;;;8.32;;
38591;SDS011;24356;48.460;11.450;2022-07-23T00:59:34;12.70;;;8.80;;
38591;SDS011;24356;48.460;11.450;2022-07-23T01:01:59;10.40;;;8.65;;
38591;SDS011;24356;48.460;11.450;2022-07-23T01:04:25;13.55;;;8.82;;
38591;SDS011;24356;48.460;11.450;2022-07-23T01:06:51;15.07;;;9.68;;
38591;SDS011;24356;48.460;11.450;2022-07-23T01:09:17;14.85;;;9.50;;
38591;SDS011;24356;48.460;11.450;2022-07-23T01:11:43;14.40;;;9.77;;
38591;SDS011;24356;48.460;11.450;2022-07-23T01:14:12;16.35;;;9.25;;
38591;SDS011;24356;48.460;11.450;2022-07-23T01:16:42;16.15;;;9.38;;
38591;SDS011;24356;48.460;11.450;2022-07-23T01:19:09;13.50;;;6.35;;
38591;SDS011;24356;48.460;11.450;2022-07-23T01:21:36;15.93;;;7.53;;
38591;SDS011;24356;48.460;11.450;2022-07-23T01:24:04;18.02;;;7.13;;
38591;SDS011;24356;48.460;11.450;2022-07-23T01:26:31;11.45;;;6.68;;
38591;SDS011;24356;48.460;11.450;2022-07-23T01:28:56;17.52;;;6.70;;
38591;SDS011;24356;48.460;11.450;2022-07-23T01:31:22;13.95;;;6.10;;
38591;SDS011;24356;48.460;11.450;2022-07-23T01:33:48;18.45;;;6.57;;
38591;SDS011;24356;48.460;11.450;2022-07-23T01:36:14;17.75;;;6.57;;
38591;SDS011;24356;48.460;11.450;2022-07-23T01:38:39;11.85;;;5.93;;
38591;SDS011;24356;48.460;11.450;2022-07-23T01:41:05;10.68;;;6.00;;
38591;SDS011;24356;48.460;11.450;2022-07-23T01:43:30;9.80;;;6.00;;
38591;SDS011;24356;48.460;11.450;2022-07-23T01:45:56;11.80;;;5.63;;
38591;SDS011;24356;48.460;11.450;2022-07-23T01:48:22;8.85;;;5.70;;
38591;SDS011;24356;48.460;11.450;2022-07-23T01:50:48;8.82;;;5.47;;
38591;SDS011;24356;48.460;11.450;2022-07-23T01:53:15;12.23;;;6.20;;
38591;SDS011;24356;48.460;11.450;2022-07-23T01:55:41;12.77;;;6.18;;
38591;SDS011;24356;48.460;11.450;2022-07-23T01:58:07;9.23;;;5.97;;
38591;SDS011;24356;48.460;11.450;2022-07-23T02:00:33;11.35;;;6.50;;
38591;SDS011;24356;48.460;11.450;2022-07-23T02:02:59;14.90;;;6.78;;
38591;SDS011;24356;48.460;11.450;2022-07-23T02:05:25;10.63;;;7.03;;
38591;SDS011;24356;48.460;11.450;2022-07-23T02:07:53;11.88;;;6.38;;
38591;SDS011;24356;48.460;11.450;2022-07-23T02:10:19;11.57;;;6.97;;
38591;SDS011;24356;48.460;11.450;2022-07-23T02:12:46;7.43;;;5.78;;
38591;SDS011;24356;48.460;11.450;2022-07-23T02:15:12;11.45;;;7.53;;
38591;SDS011;24356;48.460;11.450;2022-07-23T02:17:38;12.70;;;6.90;;
38591;SDS011;24356;48.460;11.450;2022-07-23T02:20:04;8.57;;;6.85;;
38591;SDS011;24356;48.460;11.450;2022-07-23T02:22:31;11.43;;;6.88;;
38591;SDS011;24356;48.460;11.450;2022-07-23T02:24:56;11.48;;;6.97;;
38591;SDS011;24356;48.460;11.450;2022-07-23T02:27:22;11.82;;;6.88;;
38591;SDS011;24356;48.460;11.450;2022-07-23T02:29:48;13.32;;;7.57;;
38591;SDS011;24356;48.460;11.450;2022-07-23T02:32:14;9.65;;;7.10;;
38591;SDS011;24356;48.460;11.450;2022-07-23T02:34:39;13.30;;;7.32;;
38591;SDS011;24356;48.460;11.450;2022-07-23T02:37:05;15.57;;;7.85;;
38591;SDS011;24356;48.460;11.450;2022-07-23T02:39:30;11.85;;;7.72;;
38591;SDS011;24356;48.460;11.450;2022-07-23T02:41:56;13.45;;;7.40;;
38591;SDS011;24356;48.460;11.450;2022-07-23T02:44:22;11.48;;;7.13;;
38591;SDS011;24356;48.460;11.450;2022-07-23T02:46:49;13.05;;;7.40;;
38591;SDS011;24356;48.460;11.450;2022-07-23T02:49:14;10.00;;;7.00;;
38591;SDS011;24356;48.460;11.450;2022-07-23T02:51:40;11.32;;;7.40;;
38591;SDS011;24356;48.460;11.450;2022-07-23T02:54:06;12.48;;;7.95;;
38591;SDS011;24356;48.460;11.450;2022-07-23T02:56:31;12.65;;;7.68;;
38591;SDS011;24356;48.460;11.450;2022-07-23T02:58:57;15.95;;;8.32;;
38591;SDS011;24356;48.460;11.450;2022-07-23T03:01:22;10.80;;;7.00;;
38591;SDS011;24356;48.460;11.450;2022-07-23T03:03:48;11.10;;;7.18;;
38591;SDS011;24356;48.460;11.450;2022-07-23T03:06:14;12.10;;;7.05;;
38591;SDS011;24356;48.460;11.450;2022-07-23T03:08:39;11.80;;;6.38;;
38591;SDS011;24356;48.460;11.450;2022-07-23T03:11:05;12.02;;;6.93;;
38591;SDS011;24356;48.460;11.450;2022-07-23T03:13:35;10.98;;;7.13;;
38591;SDS011;24356;48.460;11.450;2022-07-23T03:16:02;10.10;;;6.53;;
38591;SDS011;24356;48.460;11.450;2022-07-23T03:18:28;10.73;;;6.70;;
38591;SDS011;24356;48.460;11.450;2022-07-23T03:20:55;8.95;;;7.18;;
38591;SDS011;24356;48.460;11.450;2022-07-23T03:23:21;8.02;;;5.90;;
38591;SDS011;24356;48.460;11.450;2022-07-23T03:25:47;12.45;;;6.60;;
38591;SDS011;24356;48.460;11.450;2022-07-23T03:28:15;10.75;;;6.43;;
38591;SDS011;24356;48.460;11.450;2022-07-23T03:30:42;9.23;;;6.35;;
38591;SDS011;24356;48.460;11.450;2022-07-23T03:33:08;10.32;;;6.80;;
38591;SDS011;24356;48.460;11.450;2022-07-23T03:35:34;8.90;;;5.60;;
38591;SDS011;24356;48.460;11.450;2022-07-23T03:37:59;8.95;;;6.25;;
38591;SDS011;24356;48.460;11.450;2022-07-23T03:40:27;10.68;;;6.20;;
38591;SDS011;24356;48.460;11.450;2022-07-23T03:42:52;11.68;;;6.07;;
38591;SDS011;24356;48.460;11.450;2022-07-23T03:45:18;15.05;;;6.10;;
38591;SDS011;24356;48.460;11.450;2022-07-23T03:47:43;14.20;;;6.40;;
38591;SDS011;24356;48.460;11.450;2022-07-23T03:50:09;10.57;;;5.20;;
38591;SDS011;24356;48.460;11.450;2022-07-23T03:52:35;6.63;;;5.15;;
38591;SDS011;24356;48.460;11.450;2022-07-23T03:55:01;5.85;;;4.93;;
38591;SDS011;24356;48.460;11.450;2022-07-23T03:57:27;8.13;;;5.55;;
38591;SDS011;24356;48.460;11.450;2022-07-23T03:59:53;8.98;;;5.03;;
38591;SDS011;24356;48.460;11.450;2022-07-23T04:02:19;7.25;;;4.90;;
38591;SDS011;24356;48.460;11.450;2022-07-23T04:04:45;10.73;;;5.05;;
38591;SDS011;24356;48.460;11.450;2022-07-23T04:07:11;5.45;;;4.53;;
38591;SDS011;24356;48.460;11.450;2022-07-23T04:09:37;8.18;;;5.45;;
38591;SDS011;24356;48.460;11.450;2022-07-23T04:12:05;9.52;;;5.00;;
38591;SDS011;24356;48.460;11.450;2022-07-23T04:14:31;8.82;;;5.25;;
38591;SDS011;24356;48.460;11.450;2022-07-23T04:16:57;8.23;;;5.32;;
38591;SDS011;24356;48.460;11.450;2022-07-23T04:19:25;8.68;;;5.35;;
38591;SDS011;24356;48.460;11.450;2022-07-23T04:21:51;10.63;;;5.60;;
38591;SDS011;24356;48.460;11.450;2022-07-23T04:24:17;7.47;;;5.40;;
38591;SDS011;24356;48.460;11.450;2022-07-23T04:26:43;12.25;;;5.50;;
38591;SDS011;24356;48.460;11.450;2022-07-23T04:29:09;8.10;;;4.80;;
38591;SDS011;24356;48.460;11.450;2022-07-23T04:31:35;6.53;;;4.70;;
38591;SDS011;24356;48.460;11.450;2022-07-23T04:34:01;7.95;;;5.13;;
38591;SDS011;24356;48.460;11.450;2022-07-23T04:36:26;7.45;;;4.43;;
38591;SDS011;24356;48.460;11.450;2022-07-23T04:38:52;6.07;;;4.75;;
38591;SDS011;24356;48.460;11.450;2022-07-23T04:41:18;5.82;;;4.43;;
38591;SDS011;24356;48.460;11.450;2022-07-23T04:43:44;8.73;;;4.68;;
38591;SDS011;24356;48.460;11.450;2022-07-23T04:46:09;7.95;;;4.28;;
38591;SDS011;24356;48.460;11.450;2022-07-23T04:48:35;7.80;;;4.28;;
38591;SDS011;24356;48.460;11.450;2022-07-23T04:51:01;7.50;;;4.18;;
38591;SDS011;24356;48.460;11.450;2022-07-23T04:53:27;6.43;;;4.25;;
38591;SDS011;24356;48.460;11.450;2022-07-23T04:55:53;5.88;;;4.47;;
38591;SDS011;24356;48.460;11.450;2022-07-23T04:58:19;9.10;;;4.63;;
38591;SDS011;24356;48.460;11.450;2022-07-23T05:00:45;5.95;;;4.72;;
38591;SDS011;24356;48.460;11.450;2022-07-23T05:03:11;4.63;;;3.83;;
38591;SDS011;24356;48.460;11.450;2022-07-23T05:05:36;5.07;;;4.07;;
38591;SDS011;24356;48.460;11.450;2022-07-23T05:08:02;6.30;;;4.30;;
38591;SDS011;24356;48.460;11.450;2022-07-23T05:10:28;4.95;;;4.15;;
38591;SDS011;24356;48.460;11.450;2022-07-23T05:12:53;5.63;;;4.25;;
38591;SDS011;24356;48.460;11.450;2022-07-23T05:15:19;7.97;;;4.18;;
38591;SDS011;24356;48.460;11.450;2022-07-23T05:17:45;6.45;;;3.97;;
38591;SDS011;24356;48.460;11.450;2022-07-23T05:20:10;7.10;;;4.40;;
38591;SDS011;24356;48.460;11.450;2022-07-23T05:22:36;5.72;;;4.10;;
38591;SDS011;24356;48.460;11.450;2022-07-23T05:25:01;4.72;;;4.15;;
38591;SDS011;24356;48.460;11.450;2022-07-23T05:27:27;6.38;;;4.30;;
38591;SDS011;24356;48.460;11.450;2022-07-23T05:29:53;6.28;;;4.13;;
38591;SDS011;24356;48.460;11.450;2022-07-23T05:32:18;6.75;;;4.35;;
38591;SDS011;24356;48.460;11.450;2022-07-23T05:34:44;8.40;;;4.80;;
38591;SDS011;24356;48.460;11.450;2022-07-23T05:37:11;7.45;;;3.90;;
38591;SDS011;24356;48.460;11.450;2022-07-23T05:39:36;9.68;;;4.38;;
38591;SDS011;24356;48.460;11.450;2022-07-23T05:42:02;7.97;;;4.63;;
38591;SDS011;24356;48.460;11.450;2022-07-23T05:44:28;5.35;;;4.30;;
38591;SDS011;24356;48.460;11.450;2022-07-23T05:46:53;6.95;;;4.70;;
38591;SDS011;24356;48.460;11.450;2022-07-23T05:49:20;4.82;;;3.90;;
38591;SDS011;24356;48.460;11.450;2022-07-23T05:51:46;9.15;;;4.50;;
38591;SDS011;24356;48.460;11.450;2022-07-23T05:54:12;7.18;;;4.15;;
38591;SDS011;24356;48.460;11.450;2022-07-23T05:56:37;5.90;;;4.20;;
38591;SDS011;24356;48.460;11.450;2022-07-23T05:59:03;8.98;;;4.47;;
38591;SDS011;24356;48.460;11.450;2022-07-23T06:01:29;5.97;;;4.60;;
38591;SDS011;24356;48.460;11.450;2022-07-23T06:03:54;6.55;;;4.30;;
38591;SDS011;24356;48.460;11.450;2022-07-23T06:06:20;7.43;;;4.63;;
38591;SDS011;24356;48.460;11.450;2022-07-23T06:08:46;7.20;;;4.40;;
38591;SDS011;24356;48.460;11.450;2022-07-23T06:11:11;7.65;;;4.45;;
38591;SDS011;24356;48.460;11.450;2022-07-23T06:13:37;5.13;;;4.35;;
38591;SDS011;24356;48.460;11.450;2022-07-23T06:16:02;6.10;;;4.05;;
38591;SDS011;24356;48.460;11.450;2022-07-23T06:18:28;6.50;;;4.53;;
38591;SDS011;24356;48.460;11.450;2022-07-23T06:20:54;7.63;;;4.70;;
38591;SDS011;24356;48.460;11.450;2022-07-23T06:23:20;9.70;;;4.40;;
38591;SDS011;24356;48.460;11.450;2022-07-23T06:25:46;6.80;;;4.85;;
38591;SDS011;24356;48.460;11.450;2022-07-23T06:28:11;5.90;;;4.10;;
38591;SDS011;24356;48.460;11.450;2022-07-23T06:30:37;5.45;;;4.20;;
38591;SDS011;24356;48.460;11.450;2022-07-23T06:33:03;10.65;;;4.82;;
38591;SDS011;24356;48.460;11.450;2022-07-23T06:35:28;6.93;;;4.78;;
38591;SDS011;24356;48.460;11.450;2022-07-23T06:37:54;8.07;;;4.47;;
38591;SDS011;24356;48.460;11.450;2022-07-23T06:40:20;7.72;;;4.95;;
38591;SDS011;24356;48.460;11.450;2022-07-23T06:42:45;7.47;;;4.47;;
38591;SDS011;24356;48.460;11.450;2022-07-23T06:45:11;6.50;;;4.50;;
38591;SDS011;24356;48.460;11.450;2022-07-23T06:47:37;6.43;;;4.68;;
38591;SDS011;24356;48.460;11.450;2022-07-23T06:50:06;6.90;;;4.75;;
38591;SDS011;24356;48.460;11.450;2022-07-23T06:52:32;5.68;;;4.20;;
38591;SDS011;24356;48.460;11.450;2022-07-23T06:54:58;7.65;;;4.55;;
38591;SDS011;24356;48.460;11.450;2022-07-23T06:57:23;6.18;;;4.10;;
38591;SDS011;24356;48.460;11.450;2022-07-23T06:59:50;7.18;;;4.90;;
38591;SDS011;24356;48.460;11.450;2022-07-23T07:02:17;12.05;;;5.20;;
38591;SDS011;24356;48.460;11.450;2022-07-23T07:04:43;8.35;;;4.50;;
38591;SDS011;24356;48.460;11.450;2022-07-23T07:07:08;7.88;;;5.05;;
38591;SDS011;24356;48.460;11.450;2022-07-23T07:09:34;6.13;;;4.13;;
38591;SDS011;24356;48.460;11.450;2022-07-23T07:12:00;6.63;;;4.78;;
38591;SDS011;24356;48.460;11.450;2022-07-23T07:14:26;7.97;;;5.20;;
38591;SDS011;24356;48.460;11.450;2022-07-23T07:16:52;6.32;;;4.90;;
38591;SDS011;24356;48.460;11.450;2022-07-23T07:19:17;7.72;;;5.05;;
38591;SDS011;24356;48.460;11.450;2022-07-23T07:21:43;16.95;;;5.00;;
38591;SDS011;24356;48.460;11.450;2022-07-23T07:24:08;7.32;;;4.88;;
38591;SDS011;24356;48.460;11.450;2022-07-23T07:26:34;6.80;;;4.43;;
38591;SDS011;24356;48.460;11.450;2022-07-23T07:29:00;7.20;;;4.93;;
38591;SDS011;24356;48.460;11.450;2022-07-23T07:31:25;6.47;;;4.70;;
38591;SDS011;24356;48.460;11.450;2022-07-23T07:33:51;8.80;;;5.22;;
38591;SDS011;24356;48.460;11.450;2022-07-23T07:36:17;10.80;;;5.68;;
38591;SDS011;24356;48.460;11.450;2022-07-23T07:38:42;7.72;;;5.20;;
38591;SDS011;24356;48.460;11.450;2022-07-23T07:41:08;9.02;;;5.43;;
38591;SDS011;24356;48.460;11.450;2022-07-23T07:43:35;5.95;;;4.95;;
38591;SDS011;24356;48.460;11.450;2022-07-23T07:46:01;9.02;;;5.35;;
38591;SDS011;24356;48.460;11.450;2022-07-23T07:48:28;8.98;;;4.70;;
38591;SDS011;24356;48.460;11.450;2022-07-23T07:50:53;7.93;;;5.07;;
38591;SDS011;24356;48.460;11.450;2022-07-23T07:53:19;7.50;;;5.45;;
38591;SDS011;24356;48.460;11.450;2022-07-23T07:55:44;10.63;;;5.43;;
38591;SDS011;24356;48.460;11.450;2022-07-23T07:58:10;10.57;;;5.20;;
38591;SDS011;24356;48.460;11.450;2022-07-23T08:00:36;7.50;;;5.28;;
38591;SDS011;24356;48.460;11.450;2022-07-23T08:03:01;8.93;;;5.13;;
38591;SDS011;24356;48.460;11.450;2022-07-23T08:05:28;7.20;;;5.38;;
38591;SDS011;24356;48.460;11.450;2022-07-23T08:07:55;6.78;;;5.05;;
38591;SDS011;24356;48.460;11.450;2022-07-23T08:10:22;10.63;;;6.32;;
38591;SDS011;24356;48.460;11.450;2022-07-23T08:12:48;6.93;;;5.47;;
38591;SDS011;24356;48.460;11.450;2022-07-23T08:15:16;8.18;;;5.65;;
38591;SDS011;24356;48.460;11.450;2022-07-23T08:17:43;9.25;;;5.60;;
38591;SDS011;24356;48.460;11.450;2022-07-23T08:20:10;7.43;;;5.20;;
38591;SDS011;24356;48.460;11.450;2022-07-23T08:22:42;11.70;;;5.45;;
38591;SDS011;24356;48.460;11.450;2022-07-23T08:27:56;6.93;;;5.22;;
38591;SDS011;24356;48.460;11.450;2022-07-23T08:30:23;8.30;;;5.80;;
38591;SDS011;24356;48.460;11.450;2022-07-23T08:35:24;8.32;;;6.05;;
38591;SDS011;24356;48.460;11.450;2022-07-23T08:37:51;7.40;;;5.28;;
38591;SDS011;24356;48.460;11.450;2022-07-23T08:40:17;9.77;;;5.70;;
38591;SDS011;24356;48.460;11.450;2022-07-23T08:42:44;9.85;;;5.70;;
38591;SDS011;24356;48.460;11.450;2022-07-23T08:45:16;7.70;;;5.75;;
38591;SDS011;24356;48.460;11.450;2022-07-23T08:47:44;9.00;;;5.97;;
38591;SDS011;24356;48.460;11.450;2022-07-23T08:50:10;8.57;;;5.70;;
38591;SDS011;24356;48.460;11.450;2022-07-23T08:52:36;8.07;;;5.63;;
38591;SDS011;24356;48.460;11.450;2022-07-23T08:55:03;6.45;;;5.80;;
38591;SDS011;24356;48.460;11.450;2022-07-23T08:57:30;6.78;;;5.82;;
38591;SDS011;24356;48.460;11.450;2022-07-23T08:59:56;8.18;;;6.03;;
38591;SDS011;24356;48.460;11.450;2022-07-23T09:02:23;8.07;;;6.20;;
38591;SDS011;24356;48.460;11.450;2022-07-23T09:04:48;8.15;;;6.22;;
38591;SDS011;24356;48.460;11.450;2022-07-23T09:07:15;9.77;;;5.38;;
38591;SDS011;24356;48.460;11.450;2022-07-23T09:09:41;9.40;;;6.43;;
38591;SDS011;24356;48.460;11.450;2022-07-23T09:12:07;9.70;;;6.78;;
38591;SDS011;24356;48.460;11.450;2022-07-23T09:19:41;8.07;;;6.78;;
38591;SDS011;24356;48.460;11.450;2022-07-23T09:22:25;9.48;;;6.75;;
38591;SDS011;24356;48.460;11.450;2022-07-23T09:30:18;8.55;;;6.72;;
38591;SDS011;24356;48.460;11.450;2022-07-23T09:35:53;9.10;;;6.93;;
38591;SDS011;24356;48.460;11.450;2022-07-23T09:38:23;8.88;;;6.95;;
38591;SDS011;24356;48.460;11.450;2022-07-23T09:43:35;9.05;;;6.55;;
38591;SDS011;24356;48.460;11.450;2022-07-23T09:46:21;9.38;;;6.85;;
38591;SDS011;24356;48.460;11.450;2022-07-23T09:48:56;11.77;;;7.25;;
38591;SDS011;24356;48.460;11.450;2022-07-23T09:51:22;10.60;;;6.72;;
38591;SDS011;24356;48.460;11.450;2022-07-23T09:53:48;13.23;;;7.28;;
38591;SDS011;24356;48.460;11.450;2022-07-23T09:56:14;10.93;;;6.25;;
38591;SDS011;24356;48.460;11.450;2022-07-23T09:58:40;7.60;;;6.43;;
38591;SDS011;24356;48.460;11.450;2022-07-23T10:01:14;8.43;;;6.00;;
38591;SDS011;24356;48.460;11.450;2022-07-23T10:03:40;9.60;;;5.90;;
38591;SDS011;24356;48.460;11.450;2022-07-23T10:06:09;6.95;;;5.38;;
38591;SDS011;24356;48.460;11.450;2022-07-23T10:08:35;7.28;;;5.80;;
38591;SDS011;24356;48.460;11.450;2022-07-23T10:11:05;9.38;;;6.03;;
38591;SDS011;24356;48.460;11.450;2022-07-23T10:13:31;7.70;;;5.85;;
38591;SDS011;24356;48.460;11.450;2022-07-23T10:16:16;7.10;;;5.80;;
38591;SDS011;24356;48.460;11.450;2022-07-23T10:18:43;11.07;;;5.82;;
38591;SDS011;24356;48.460;11.450;2022-07-23T10:21:09;8.40;;;5.78;;
38591;SDS011;24356;48.460;11.450;2022-07-23T10:28:41;8.82;;;5.70;;
38591;SDS011;24356;48.460;11.450;2022-07-23T10:31:56;7.63;;;5.43;;
38591;SDS011;24356;48.460;11.450;2022-07-23T10:37:27;7.20;;;5.68;;
38591;SDS011;24356;48.460;11.450;2022-07-23T10:42:47;7.03;;;5.35;;
38591;SDS011;24356;48.460;11.450;2022-07-23T10:45:27;8.48;;;5.13;;
38591;SDS011;24356;48.460;11.450;2022-07-23T10:48:16;10.07;;;5.32;;
38591;SDS011;24356;48.460;11.450;2022-07-23T10:50:44;6.40;;;5.10;;
38591;SDS011;24356;48.460;11.450;2022-07-23T10:56:16;6.20;;;4.80;;
38591;SDS011;24356;48.460;11.450;2022-07-23T10:59:05;5.93;;;4.95;;
38591;SDS011;24356;48.460;11.450;2022-07-23T11:01:31;8.82;;;5.22;;
38591;SDS011;24356;48.460;11.450;2022-07-23T11:04:06;7.03;;;5.32;;
38591;SDS011;24356;48.460;11.450;2022-07-23T11:09:31;11.30;;;5.63;;
38591;SDS011;24356;48.460;11.450;2022-07-23T11:18:20;7.50;;;5.65;;
38591;SDS011;24356;48.460;11.450;2022-07-23T11:20:26;7.55;;;5.75;;
38591;SDS011;24356;48.460;11.450;2022-07-23T11:22:56;10.88;;;5.53;;
38591;SDS011;24356;48.460;11.450;2022-07-23T11:27:55;6.50;;;5.30;;
38591;SDS011;24356;48.460;11.450;2022-07-23T11:30:43;6.93;;;5.88;;
38591;SDS011;24356;48.460;11.450;2022-07-23T11:35:39;8.07;;;5.35;;
38591;SDS011;24356;48.460;11.450;2022-07-23T11:43:06;6.18;;;5.00;;
38591;SDS011;24356;48.460;11.450;2022-07-23T11:45:34;6.75;;;5.00;;
38591;SDS011;24356;48.460;11.450;2022-07-23T11:48:09;8.70;;;5.57;;
38591;SDS011;24356;48.460;11.450;2022-07-23T11:53:06;14.30;;;5.45;;
38591;SDS011;24356;48.460;11.450;2022-07-23T11:55:32;11.68;;;5.55;;
38591;SDS011;24356;48.460;11.450;2022-07-23T11:57:58;8.18;;;5.72;;
38591;SDS011;24356;48.460;11.450;2022-07-23T12:00:24;6.38;;;5.47;;
38591;SDS011;24356;48.460;11.450;2022-07-23T12:02:52;7.90;;;5.63;;
38591;SDS011;24356;48.460;11.450;2022-07-23T12:05:22;7.95;;;5.70;;
38591;SDS011;24356;48.460;11.450;2022-07-23T12:07:51;7.38;;;5.72;;
38591;SDS011;24356;48.460;11.450;2022-07-23T12:10:22;9.40;;;5.68;;
38591;SDS011;24356;48.460;11.450;2022-07-23T12:12:50;7.78;;;5.55;;
38591;SDS011;24356;48.460;11.450;2022-07-23T12:15:27;9.05;;;5.68;;
38591;SDS011;24356;48.460;11.450;2022-07-23T12:17:56;18.42;;;5.60;;
38591;SDS011;24356;48.460;11.450;2022-07-23T12:20:24;7.50;;;5.40;;
38591;SDS011;24356;48.460;11.450;2022-07-23T12:22:57;13.45;;;5.97;;
38591;SDS011;24356;48.460;11.450;2022-07-23T12:25:34;15.38;;;5.40;;
38591;SDS011;24356;48.460;11.450;2022-07-23T12:28:03;25.98;;;6.28;;
38591;SDS011;24356;48.460;11.450;2022-07-23T12:30:37;13.55;;;6.43;;
38591;SDS011;24356;48.460;11.450;2022-07-23T12:33:07;12.48;;;5.82;;
38591;SDS011;24356;48.460;11.450;2022-07-23T12:35:37;9.23;;;5.38;;
38591;SDS011;24356;48.460;11.450;2022-07-23T12:38:07;39.33;;;6.28;;
38591;SDS011;24356;48.460;11.450;2022-07-23T12:40:41;12.88;;;5.72;;
38591;SDS011;24356;48.460;11.450;2022-07-23T12:45:56;7.15;;;5.85;;
38591;SDS011;24356;48.460;11.450;2022-07-23T12:48:38;8.77;;;5.53;;
38591;SDS011;24356;48.460;11.450;2022-07-23T12:51:18;9.45;;;5.80;;
38591;SDS011;24356;48.460;11.450;2022-07-23T12:53:46;7.20;;;5.57;;
38591;SDS011;24356;48.460;11.450;2022-07-23T12:58:57;6.50;;;5.43;;
38591;SDS011;24356;48.460;11.450;2022-07-23T13:03:57;8.93;;;5.93;;
38591;SDS011;24356;48.460;11.450;2022-07-23T13:06:29;95.93;;;11.27;;
38591;SDS011;24356;48.460;11.450;2022-07-23T13:09:18;7.72;;;5.93;;
38591;SDS011;24356;48.460;11.450;2022-07-23T13:11:49;8.55;;;5.82;;
38591;SDS011;24356;48.460;11.450;2022-07-23T13:14:16;9.85;;;5.93;;
38591;SDS011;24356;48.460;11.450;2022-07-23T13:16:43;46.28;;;7.95;;
38591;SDS011;24356;48.460;11.450;2022-07-23T13:19:09;8.80;;;6.45;;
38591;SDS011;24356;48.460;11.450;2022-07-23T13:21:36;8.80;;;5.82;;
38591;SDS011;24356;48.460;11.450;2022-07-23T13:24:02;9.63;;;5.93;;
38591;SDS011;24356;48.460;11.450;2022-07-23T13:26:28;43.08;;;8.85;;
38591;SDS011;24356;48.460;11.450;2022-07-23T13:28:54;13.27;;;6.22;;
38591;SDS011;24356;48.460;11.450;2022-07-23T13:31:20;10.35;;;6.07;;
38591;SDS011;24356;48.460;11.450;2022-07-23T13:33:45;8.13;;;5.72;;
38591;SDS011;24356;48.460;11.450;2022-07-23T13:36:12;14.02;;;5.82;;
38591;SDS011;24356;48.460;11.450;2022-07-23T13:38:38;6.35;;;5.75;;
38591;SDS011;24356;48.460;11.450;2022-07-23T13:41:04;9.02;;;5.88;;
38591;SDS011;24356;48.460;11.450;2022-07-23T13:43:30;8.23;;;6.00;;
38591;SDS011;24356;48.460;11.450;2022-07-23T13:45:57;9.23;;;5.90;;
38591;SDS011;24356;48.460;11.450;2022-07-23T13:48:22;10.10;;;6.10;;
38591;SDS011;24356;48.460;11.450;2022-07-23T13:50:50;8.20;;;5.85;;
38591;SDS011;24356;48.460;11.450;2022-07-23T13:53:17;7.53;;;6.20;;
38591;SDS011;24356;48.460;11.450;2022-07-23T13:55:44;102.75;;;11.65;;
38591;SDS011;24356;48.460;11.450;2022-07-23T13:58:11;128.55;;;12.20;;
38591;SDS011;24356;48.460;11.450;2022-07-23T14:00:38;18.40;;;6.35;;
38591;SDS011;24356;48.460;11.450;2022-07-23T14:03:07;12.55;;;6.55;;
38591;SDS011;24356;48.460;11.450;2022-07-23T14:05:33;13.10;;;6.63;;
38591;SDS011;24356;48.460;11.450;2022-07-23T14:07:58;9.65;;;6.80;;
38591;SDS011;24356;48.460;11.450;2022-07-23T14:10:24;10.88;;;6.80;;
38591;SDS011;24356;48.460;11.450;2022-07-23T14:12:50;13.20;;;6.43;;
38591;SDS011;24356;48.460;11.450;2022-07-23T14:15:18;7.90;;;6.30;;
38591;SDS011;24356;48.460;11.450;2022-07-23T14:17:45;8.65;;;6.28;;
38591;SDS011;24356;48.460;11.450;2022-07-23T14:20:11;8.32;;;6.32;;
38591;SDS011;24356;48.460;11.450;2022-07-23T14:22:38;8.25;;;7.00;;
38591;SDS011;24356;48.460;11.450;2022-07-23T14:25:06;10.30;;;6.90;;
38591;SDS011;24356;48.460;11.450;2022-07-23T14:27:33;8.82;;;6.47;;
38591;SDS011;24356;48.460;11.450;2022-07-23T14:30:00;8.52;;;6.55;;
38591;SDS011;24356;48.460;11.450;2022-07-23T14:32:26;9.98;;;6.13;;
38591;SDS011;24356;48.460;11.450;2022-07-23T14:34:53;8.50;;;6.82;;
38591;SDS011;24356;48.460;11.450;2022-07-23T14:37:19;9.77;;;6.50;;
38591;SDS011;24356;48.460;11.450;2022-07-23T14:39:46;7.75;;;5.95;;
38591;SDS011;24356;48.460;11.450;2022-07-23T14:42:12;8.20;;;5.97;;
38591;SDS011;24356;48.460;11.450;2022-07-23T14:44:38;9.27;;;6.25;;
38591;SDS011;24356;48.460;11.450;2022-07-23T14:47:05;7.40;;;6.18;;
38591;SDS011;24356;48.460;11.450;2022-07-23T14:49:31;7.20;;;5.53;;
38591;SDS011;24356;48.460;11.450;2022-07-23T14:51:58;6.95;;;5.38;;
38591;SDS011;24356;48.460;11.450;2022-07-23T14:54:24;8.48;;;5.07;;
38591;SDS011;24356;48.460;11.450;2022-07-23T14:56:52;5.10;;;4.57;;
38591;SDS011;24356;48.460;11.450;2022-07-23T14:59:19;6.97;;;4.97;;
38591;SDS011;24356;48.460;11.450;2022-07-23T15:01:45;7.28;;;4.90;;
38591;SDS011;24356;48.460;11.450;2022-07-23T15:04:10;8.00;;;4.90;;
38591;SDS011;24356;48.460;11.450;2022-07-23T15:06:36;7.88;;;4.90;;
38591;SDS011;24356;48.460;11.450;2022-07-23T15:09:04;6.68;;;4.80;;
38591;SDS011;24356;48.460;11.450;2022-07-23T15:11:30;6.35;;;4.70;;
38591;SDS011;24356;48.460;11.450;2022-07-23T15:13:58;7.82;;;5.57;;
38591;SDS011;24356;48.460;11.450;2022-07-23T15:16:25;5.38;;;4.82;;
38591;SDS011;24356;48.460;11.450;2022-07-23T15:18:53;6.18;;;5.00;;
38591;SDS011;24356;48.460;11.450;2022-07-23T15:21:19;6.45;;;4.72;;
38591;SDS011;24356;48.460;11.450;2022-07-23T15:23:46;6.90;;;4.80;;
38591;SDS011;24356;48.460;11.450;2022-07-23T15:26:12;5.10;;;4.60;;
38591;SDS011;24356;48.460;11.450;2022-07-23T15:28:40;5.90;;;4.70;;
38591;SDS011;24356;48.460;11.450;2022-07-23T15:31:06;7.00;;;4.50;;
38591;SDS011;24356;48.460;11.450;2022-07-23T15:33:32;5.88;;;4.95;;
38591;SDS011;24356;48.460;11.450;2022-07-23T15:35:58;7.68;;;5.07;;